sensor_id;sensor_type;location;lat;lon;timestamp;temperature;humidity
10903;DHT22;5504;47.312;11.060;2022-10-16T00:00:30;12.50;97.00
10903;DHT22;5504;47.312;11.060;2022-10-16T00:02:56;12.50;97.10
10903;DHT22;5504;47.312;11.060;2022-10-16T00:05:22;12.60;96.80
10903;DHT22;5504;47.312;11.060;2022-10-16T00:07:47;12.80;96.50
10903;DHT22;5504;47.312;11.060;2022-10-16T00:10:13;12.80;96.30
10903;DHT22;5504;47.312;11.060;2022-10-16T00:12:39;12.80;96.30
10903;DHT22;5504;47.312;11.060;2022-10-16T00:15:05;12.70;96.50
10903;DHT22;5504;47.312;11.060;2022-10-16T00:17:31;12.60;96.70
10903;DHT22;5504;47.312;11.060;2022-10-16T00:19:57;12.50;97.10
10903;DHT22;5504;47.312;11.060;2022-10-16T00:22:23;12.50;97.30
10903;DHT22;5504;47.312;11.060;2022-10-16T00:24:48;12.60;97.30
10903;DHT22;5504;47.312;11.060;2022-10-16T00:27:14;12.80;97.00
10903;DHT22;5504;47.312;11.060;2022-10-16T00:29:40;12.80;96.80
10903;DHT22;5504;47.312;11.060;2022-10-16T00:32:05;12.60;96.80
10903;DHT22;5504;47.312;11.060;2022-10-16T00:34:31;12.50;96.90
10903;DHT22;5504;47.312;11.060;2022-10-16T00:36:57;12.50;97.10
10903;DHT22;5504;47.312;11.060;2022-10-16T00:39:22;12.50;97.10
10903;DHT22;5504;47.312;11.060;2022-10-16T00:41:49;12.40;97.20
10903;DHT22;5504;47.312;11.060;2022-10-16T00:47:15;12.40;97.40
10903;DHT22;5504;47.312;11.060;2022-10-16T00:49:43;12.40;97.50
10903;DHT22;5504;47.312;11.060;2022-10-16T00:52:10;12.40;97.10
10903;DHT22;5504;47.312;11.060;2022-10-16T00:54:36;12.40;97.20
10903;DHT22;5504;47.312;11.060;2022-10-16T00:57:04;12.30;97.20
10903;DHT22;5504;47.312;11.060;2022-10-16T00:59:34;12.20;97.50
10903;DHT22;5504;47.312;11.060;2022-10-16T01:02:01;12.30;97.80
10903;DHT22;5504;47.312;11.060;2022-10-16T01:04:32;12.30;97.80
10903;DHT22;5504;47.312;11.060;2022-10-16T01:12:44;12.30;97.50
10903;DHT22;5504;47.312;11.060;2022-10-16T01:21:12;12.20;97.90
10903;DHT22;5504;47.312;11.060;2022-10-16T01:29:18;12.30;97.80
10903;DHT22;5504;47.312;11.060;2022-10-16T01:31:49;12.30;98.20
10903;DHT22;5504;47.312;11.060;2022-10-16T01:34:37;12.40;98.20
10903;DHT22;5504;47.312;11.060;2022-10-16T01:37:12;12.50;98.00
10903;DHT22;5504;47.312;11.060;2022-10-16T01:39:42;12.60;97.90
10903;DHT22;5504;47.312;11.060;2022-10-16T01:42:20;12.60;97.70
10903;DHT22;5504;47.312;11.060;2022-10-16T01:44:48;12.60;97.60
10903;DHT22;5504;47.312;11.060;2022-10-16T01:47:15;12.50;97.60
10903;DHT22;5504;47.312;11.060;2022-10-16T01:49:43;12.60;97.80
10903;DHT22;5504;47.312;11.060;2022-10-16T01:52:14;12.60;97.70
10903;DHT22;5504;47.312;11.060;2022-10-16T01:54:43;12.60;97.50
10903;DHT22;5504;47.312;11.060;2022-10-16T01:57:12;12.50;97.70
10903;DHT22;5504;47.312;11.060;2022-10-16T01:59:44;12.50;97.80
10903;DHT22;5504;47.312;11.060;2022-10-16T02:02:13;12.50;97.80
10903;DHT22;5504;47.312;11.060;2022-10-16T02:04:46;12.50;98.10
10903;DHT22;5504;47.312;11.060;2022-10-16T02:07:13;12.60;98.20
10903;DHT22;5504;47.312;11.060;2022-10-16T02:09:39;12.60;98.00
10903;DHT22;5504;47.312;11.060;2022-10-16T02:12:35;12.60;98.00
10903;DHT22;5504;47.312;11.060;2022-10-16T02:14:59;12.60;97.90
10903;DHT22;5504;47.312;11.060;2022-10-16T02:17:25;12.60;97.90
10903;DHT22;5504;47.312;11.060;2022-10-16T02:19:53;12.60;97.90
10903;DHT22;5504;47.312;11.060;2022-10-16T02:22:41;12.70;98.00
10903;DHT22;5504;47.312;11.060;2022-10-16T02:25:24;12.70;97.70
10903;DHT22;5504;47.312;11.060;2022-10-16T02:31:01;12.60;97.80
10903;DHT22;5504;47.312;11.060;2022-10-16T02:33:20;12.60;97.90
10903;DHT22;5504;47.312;11.060;2022-10-16T02:35:48;12.60;98.10
10903;DHT22;5504;47.312;11.060;2022-10-16T02:38:16;12.70;98.40
10903;DHT22;5504;47.312;11.060;2022-10-16T02:40:42;12.70;98.50
10903;DHT22;5504;47.312;11.060;2022-10-16T02:43:08;12.90;97.90
10903;DHT22;5504;47.312;11.060;2022-10-16T02:45:35;12.90;97.50
10903;DHT22;5504;47.312;11.060;2022-10-16T02:48:01;13.00;97.50
10903;DHT22;5504;47.312;11.060;2022-10-16T02:50:26;12.90;97.50
10903;DHT22;5504;47.312;11.060;2022-10-16T02:52:52;12.90;97.60
10903;DHT22;5504;47.312;11.060;2022-10-16T02:55:18;12.80;97.70
10903;DHT22;5504;47.312;11.060;2022-10-16T02:57:43;12.70;97.80
10903;DHT22;5504;47.312;11.060;2022-10-16T03:00:13;12.70;97.90
10903;DHT22;5504;47.312;11.060;2022-10-16T03:02:39;12.80;98.10
10903;DHT22;5504;47.312;11.060;2022-10-16T03:05:05;12.70;98.00
10903;DHT22;5504;47.312;11.060;2022-10-16T03:07:30;12.70;98.10
10903;DHT22;5504;47.312;11.060;2022-10-16T03:09:56;12.70;98.40
10903;DHT22;5504;47.312;11.060;2022-10-16T03:12:22;12.60;98.50
10903;DHT22;5504;47.312;11.060;2022-10-16T03:14:48;12.70;98.60
10903;DHT22;5504;47.312;11.060;2022-10-16T03:17:14;12.80;98.60
10903;DHT22;5504;47.312;11.060;2022-10-16T03:19:42;12.80;98.60
10903;DHT22;5504;47.312;11.060;2022-10-16T03:22:07;12.90;98.40
10903;DHT22;5504;47.312;11.060;2022-10-16T03:24:33;12.90;98.30
10903;DHT22;5504;47.312;11.060;2022-10-16T03:26:59;12.90;98.20
10903;DHT22;5504;47.312;11.060;2022-10-16T03:29:26;13.00;98.10
10903;DHT22;5504;47.312;11.060;2022-10-16T03:31:53;12.90;97.90
10903;DHT22;5504;47.312;11.060;2022-10-16T03:34:18;12.90;97.90
10903;DHT22;5504;47.312;11.060;2022-10-16T03:36:44;12.90;98.00
10903;DHT22;5504;47.312;11.060;2022-10-16T03:39:10;12.90;98.00
10903;DHT22;5504;47.312;11.060;2022-10-16T03:41:36;12.90;98.20
10903;DHT22;5504;47.312;11.060;2022-10-16T03:44:01;12.90;98.20
10903;DHT22;5504;47.312;11.060;2022-10-16T03:46:27;13.00;98.10
10903;DHT22;5504;47.312;11.060;2022-10-16T03:48:53;12.90;97.90
10903;DHT22;5504;47.312;11.060;2022-10-16T03:51:18;12.90;98.00
10903;DHT22;5504;47.312;11.060;2022-10-16T03:53:44;12.90;98.00
10903;DHT22;5504;47.312;11.060;2022-10-16T03:56:10;12.90;98.30
10903;DHT22;5504;47.312;11.060;2022-10-16T03:58:35;12.90;98.40
10903;DHT22;5504;47.312;11.060;2022-10-16T04:01:01;13.10;98.20
10903;DHT22;5504;47.312;11.060;2022-10-16T04:03:27;13.10;97.80
10903;DHT22;5504;47.312;11.060;2022-10-16T04:05:53;13.20;97.70
10903;DHT22;5504;47.312;11.060;2022-10-16T04:08:19;13.10;97.70
10903;DHT22;5504;47.312;11.060;2022-10-16T04:10:45;13.00;97.80
10903;DHT22;5504;47.312;11.060;2022-10-16T04:13:11;13.00;97.90
10903;DHT22;5504;47.312;11.060;2022-10-16T04:15:37;13.00;98.00
10903;DHT22;5504;47.312;11.060;2022-10-16T04:18:03;13.00;98.10
10903;DHT22;5504;47.312;11.060;2022-10-16T04:20:29;12.90;98.10
10903;DHT22;5504;47.312;11.060;2022-10-16T04:22:55;12.90;98.20
10903;DHT22;5504;47.312;11.060;2022-10-16T04:25:21;12.80;98.20
10903;DHT22;5504;47.312;11.060;2022-10-16T04:27:47;12.90;98.40
10903;DHT22;5504;47.312;11.060;2022-10-16T04:30:13;12.90;98.30
10903;DHT22;5504;47.312;11.060;2022-10-16T04:32:39;13.00;98.20
10903;DHT22;5504;47.312;11.060;2022-10-16T04:35:05;12.90;98.10
10903;DHT22;5504;47.312;11.060;2022-10-16T04:37:31;12.90;98.10
10903;DHT22;5504;47.312;11.060;2022-10-16T04:39:56;12.90;98.10
10903;DHT22;5504;47.312;11.060;2022-10-16T04:42:22;12.90;98.10
10903;DHT22;5504;47.312;11.060;2022-10-16T04:44:48;12.90;98.10
10903;DHT22;5504;47.312;11.060;2022-10-16T04:47:13;12.80;98.00
10903;DHT22;5504;47.312;11.060;2022-10-16T04:49:39;12.70;97.90
10903;DHT22;5504;47.312;11.060;2022-10-16T04:52:05;12.90;98.00
10903;DHT22;5504;47.312;11.060;2022-10-16T04:54:31;12.80;97.70
10903;DHT22;5504;47.312;11.060;2022-10-16T04:56:57;12.80;97.80
10903;DHT22;5504;47.312;11.060;2022-10-16T04:59:23;12.80;97.90
10903;DHT22;5504;47.312;11.060;2022-10-16T05:01:48;12.70;97.80
10903;DHT22;5504;47.312;11.060;2022-10-16T05:04:15;12.60;97.80
10903;DHT22;5504;47.312;11.060;2022-10-16T05:06:41;12.50;98.00
10903;DHT22;5504;47.312;11.060;2022-10-16T05:09:07;12.50;98.10
10903;DHT22;5504;47.312;11.060;2022-10-16T05:11:34;12.50;98.10
10903;DHT22;5504;47.312;11.060;2022-10-16T05:14:00;12.40;98.00
10903;DHT22;5504;47.312;11.060;2022-10-16T05:16:26;12.40;97.90
10903;DHT22;5504;47.312;11.060;2022-10-16T05:18:52;12.30;98.00
10903;DHT22;5504;47.312;11.060;2022-10-16T05:21:18;12.30;98.20
10903;DHT22;5504;47.312;11.060;2022-10-16T05:23:43;12.40;98.50
10903;DHT22;5504;47.312;11.060;2022-10-16T05:26:09;12.60;98.10
10903;DHT22;5504;47.312;11.060;2022-10-16T05:28:35;12.60;97.80
10903;DHT22;5504;47.312;11.060;2022-10-16T05:31:05;12.70;97.50
10903;DHT22;5504;47.312;11.060;2022-10-16T05:33:31;12.60;97.50
10903;DHT22;5504;47.312;11.060;2022-10-16T05:35:57;12.50;97.70
10903;DHT22;5504;47.312;11.060;2022-10-16T05:38:25;12.40;98.10
10903;DHT22;5504;47.312;11.060;2022-10-16T05:40:52;12.40;98.30
10903;DHT22;5504;47.312;11.060;2022-10-16T05:43:18;12.40;98.30
10903;DHT22;5504;47.312;11.060;2022-10-16T05:45:44;12.60;98.30
10903;DHT22;5504;47.312;11.060;2022-10-16T05:48:09;12.60;98.20
10903;DHT22;5504;47.312;11.060;2022-10-16T05:50:35;12.80;97.90
10903;DHT22;5504;47.312;11.060;2022-10-16T05:53:00;12.70;97.80
10903;DHT22;5504;47.312;11.060;2022-10-16T05:55:26;12.70;97.80
10903;DHT22;5504;47.312;11.060;2022-10-16T05:57:54;12.70;97.80
10903;DHT22;5504;47.312;11.060;2022-10-16T06:00:20;12.70;98.10
10903;DHT22;5504;47.312;11.060;2022-10-16T06:02:45;12.70;98.10
10903;DHT22;5504;47.312;11.060;2022-10-16T06:05:11;12.70;98.20
10903;DHT22;5504;47.312;11.060;2022-10-16T06:07:37;12.90;98.40
10903;DHT22;5504;47.312;11.060;2022-10-16T06:10:04;12.90;98.10
10903;DHT22;5504;47.312;11.060;2022-10-16T06:12:29;13.00;98.10
10903;DHT22;5504;47.312;11.060;2022-10-16T06:14:55;13.30;97.90
10903;DHT22;5504;47.312;11.060;2022-10-16T06:17:21;13.50;97.10
10903;DHT22;5504;47.312;11.060;2022-10-16T06:19:46;13.40;97.30
10903;DHT22;5504;47.312;11.060;2022-10-16T06:22:12;13.30;97.60
10903;DHT22;5504;47.312;11.060;2022-10-16T06:24:38;13.30;97.90
10903;DHT22;5504;47.312;11.060;2022-10-16T06:27:04;13.30;98.10
10903;DHT22;5504;47.312;11.060;2022-10-16T06:29:30;13.30;98.10
10903;DHT22;5504;47.312;11.060;2022-10-16T06:31:56;13.40;98.00
10903;DHT22;5504;47.312;11.060;2022-10-16T06:34:22;13.50;98.30
10903;DHT22;5504;47.312;11.060;2022-10-16T06:36:48;13.90;98.60
10903;DHT22;5504;47.312;11.060;2022-10-16T06:39:13;14.40;97.40
10903;DHT22;5504;47.312;11.060;2022-10-16T06:41:39;14.80;97.10
10903;DHT22;5504;47.312;11.060;2022-10-16T06:44:06;15.10;95.40
10903;DHT22;5504;47.312;11.060;2022-10-16T06:46:32;14.90;96.00
10903;DHT22;5504;47.312;11.060;2022-10-16T06:48:58;15.20;95.50
10903;DHT22;5504;47.312;11.060;2022-10-16T06:51:25;15.40;95.40
10903;DHT22;5504;47.312;11.060;2022-10-16T06:53:53;15.80;95.00
10903;DHT22;5504;47.312;11.060;2022-10-16T06:56:20;16.40;94.20
10903;DHT22;5504;47.312;11.060;2022-10-16T06:58:47;16.90;93.40
10903;DHT22;5504;47.312;11.060;2022-10-16T07:01:13;17.30;92.60
10903;DHT22;5504;47.312;11.060;2022-10-16T07:03:40;17.70;92.00
10903;DHT22;5504;47.312;11.060;2022-10-16T07:06:07;18.00;91.40
10903;DHT22;5504;47.312;11.060;2022-10-16T07:08:38;18.30;91.10
10903;DHT22;5504;47.312;11.060;2022-10-16T07:11:12;18.50;90.40
10903;DHT22;5504;47.312;11.060;2022-10-16T07:13:41;18.10;90.10
10903;DHT22;5504;47.312;11.060;2022-10-16T07:16:14;17.60;90.50
10903;DHT22;5504;47.312;11.060;2022-10-16T07:18:41;17.60;90.70
10903;DHT22;5504;47.312;11.060;2022-10-16T07:21:11;17.90;91.10
10903;DHT22;5504;47.312;11.060;2022-10-16T07:23:37;18.00;90.30
10903;DHT22;5504;47.312;11.060;2022-10-16T07:26:04;18.50;90.80
10903;DHT22;5504;47.312;11.060;2022-10-16T07:28:30;18.80;88.50
10903;DHT22;5504;47.312;11.060;2022-10-16T07:31:03;18.90;87.70
10903;DHT22;5504;47.312;11.060;2022-10-16T07:33:30;18.90;88.00
10903;DHT22;5504;47.312;11.060;2022-10-16T07:35:55;19.30;87.10
10903;DHT22;5504;47.312;11.060;2022-10-16T07:38:21;18.80;85.60
10903;DHT22;5504;47.312;11.060;2022-10-16T07:40:47;19.00;88.60
10903;DHT22;5504;47.312;11.060;2022-10-16T07:43:13;19.60;87.80
10903;DHT22;5504;47.312;11.060;2022-10-16T07:45:49;19.90;85.10
10903;DHT22;5504;47.312;11.060;2022-10-16T07:48:16;19.20;83.50
10903;DHT22;5504;47.312;11.060;2022-10-16T07:50:43;18.80;86.60
10903;DHT22;5504;47.312;11.060;2022-10-16T07:53:09;18.40;87.30
10903;DHT22;5504;47.312;11.060;2022-10-16T07:55:35;18.20;88.70
10903;DHT22;5504;47.312;11.060;2022-10-16T07:58:01;17.70;89.30
10903;DHT22;5504;47.312;11.060;2022-10-16T08:00:27;17.90;90.20
10903;DHT22;5504;47.312;11.060;2022-10-16T08:02:52;17.60;88.90
10903;DHT22;5504;47.312;11.060;2022-10-16T08:05:18;17.70;89.70
10903;DHT22;5504;47.312;11.060;2022-10-16T08:07:49;17.70;88.60
10903;DHT22;5504;47.312;11.060;2022-10-16T08:10:17;17.60;90.00
10903;DHT22;5504;47.312;11.060;2022-10-16T08:12:43;17.90;90.00
10903;DHT22;5504;47.312;11.060;2022-10-16T08:15:09;18.00;89.50
10903;DHT22;5504;47.312;11.060;2022-10-16T08:17:35;18.00;88.20
10903;DHT22;5504;47.312;11.060;2022-10-16T08:20:01;18.10;88.80
10903;DHT22;5504;47.312;11.060;2022-10-16T08:22:27;18.10;90.00
10903;DHT22;5504;47.312;11.060;2022-10-16T08:24:53;18.70;90.40
10903;DHT22;5504;47.312;11.060;2022-10-16T08:27:18;19.30;87.90
10903;DHT22;5504;47.312;11.060;2022-10-16T08:29:44;20.00;87.60
10903;DHT22;5504;47.312;11.060;2022-10-16T08:32:10;20.00;82.30
10903;DHT22;5504;47.312;11.060;2022-10-16T08:34:35;20.90;82.80
10903;DHT22;5504;47.312;11.060;2022-10-16T08:37:01;21.20;80.60
10903;DHT22;5504;47.312;11.060;2022-10-16T08:39:28;21.30;78.80
10903;DHT22;5504;47.312;11.060;2022-10-16T08:50:11;22.60;75.70
10903;DHT22;5504;47.312;11.060;2022-10-16T08:52:41;22.90;71.70
10903;DHT22;5504;47.312;11.060;2022-10-16T08:55:27;21.90;73.40
10903;DHT22;5504;47.312;11.060;2022-10-16T08:57:54;22.20;76.70
10903;DHT22;5504;47.312;11.060;2022-10-16T09:00:19;22.80;75.10
10903;DHT22;5504;47.312;11.060;2022-10-16T09:05:52;23.30;69.60
10903;DHT22;5504;47.312;11.060;2022-10-16T09:16:46;23.80;69.10
10903;DHT22;5504;47.312;11.060;2022-10-16T09:19:30;23.60;71.00
10903;DHT22;5504;47.312;11.060;2022-10-16T09:21:59;24.10;69.50
10903;DHT22;5504;47.312;11.060;2022-10-16T09:24:27;24.50;69.20
10903;DHT22;5504;47.312;11.060;2022-10-16T09:26:52;25.00;69.00
10903;DHT22;5504;47.312;11.060;2022-10-16T09:29:20;25.70;65.90
10903;DHT22;5504;47.312;11.060;2022-10-16T09:31:47;26.10;65.80
10903;DHT22;5504;47.312;11.060;2022-10-16T09:34:32;26.50;64.60
10903;DHT22;5504;47.312;11.060;2022-10-16T09:37:05;27.00;62.90
10903;DHT22;5504;47.312;11.060;2022-10-16T09:39:53;27.40;60.80
10903;DHT22;5504;47.312;11.060;2022-10-16T09:42:32;27.40;60.70
10903;DHT22;5504;47.312;11.060;2022-10-16T09:45:00;26.30;59.40
10903;DHT22;5504;47.312;11.060;2022-10-16T09:47:28;26.50;61.50
10903;DHT22;5504;47.312;11.060;2022-10-16T09:50:24;26.10;59.30
10903;DHT22;5504;47.312;11.060;2022-10-16T09:53:13;26.00;62.50
10903;DHT22;5504;47.312;11.060;2022-10-16T09:55:53;25.90;58.90
10903;DHT22;5504;47.312;11.060;2022-10-16T09:58:22;26.80;59.10
10903;DHT22;5504;47.312;11.060;2022-10-16T10:00:52;27.00;60.20
10903;DHT22;5504;47.312;11.060;2022-10-16T10:03:40;27.00;58.50
10903;DHT22;5504;47.312;11.060;2022-10-16T10:06:18;26.90;58.10
10903;DHT22;5504;47.312;11.060;2022-10-16T10:09:25;26.60;60.40
10903;DHT22;5504;47.312;11.060;2022-10-16T10:17:12;25.10;61.90
10903;DHT22;5504;47.312;11.060;2022-10-16T10:19:40;24.80;60.20
10903;DHT22;5504;47.312;11.060;2022-10-16T10:22:32;26.20;61.30
10903;DHT22;5504;47.312;11.060;2022-10-16T10:30:22;26.10;55.30
10903;DHT22;5504;47.312;11.060;2022-10-16T10:39:07;26.60;56.30
10903;DHT22;5504;47.312;11.060;2022-10-16T10:48:24;27.80;56.10
10903;DHT22;5504;47.312;11.060;2022-10-16T10:50:57;28.70;56.20
10903;DHT22;5504;47.312;11.060;2022-10-16T10:56:58;25.00;57.40
10903;DHT22;5504;47.312;11.060;2022-10-16T11:02:00;24.50;59.90
10903;DHT22;5504;47.312;11.060;2022-10-16T11:04:41;25.30;60.20
10903;DHT22;5504;47.312;11.060;2022-10-16T11:07:23;26.30;61.00
10903;DHT22;5504;47.312;11.060;2022-10-16T11:10:09;27.20;58.70
10903;DHT22;5504;47.312;11.060;2022-10-16T11:12:44;27.90;56.50
10903;DHT22;5504;47.312;11.060;2022-10-16T11:15:29;28.60;55.60
10903;DHT22;5504;47.312;11.060;2022-10-16T11:20:34;28.90;53.80
10903;DHT22;5504;47.312;11.060;2022-10-16T11:23:14;29.20;53.30
10903;DHT22;5504;47.312;11.060;2022-10-16T11:25:43;29.10;52.60
10903;DHT22;5504;47.312;11.060;2022-10-16T11:30:48;29.10;53.20
10903;DHT22;5504;47.312;11.060;2022-10-16T11:36:00;29.60;51.60
10903;DHT22;5504;47.312;11.060;2022-10-16T11:44:09;29.30;50.40
10903;DHT22;5504;47.312;11.060;2022-10-16T11:46:40;29.00;51.00
10903;DHT22;5504;47.312;11.060;2022-10-16T11:49:21;28.30;52.10
10903;DHT22;5504;47.312;11.060;2022-10-16T11:55:01;29.10;51.40
10903;DHT22;5504;47.312;11.060;2022-10-16T11:57:40;29.20;52.00
10903;DHT22;5504;47.312;11.060;2022-10-16T12:00:34;29.30;51.80
10903;DHT22;5504;47.312;11.060;2022-10-16T12:03:29;29.40;52.90
10903;DHT22;5504;47.312;11.060;2022-10-16T12:08:37;28.40;51.10
10903;DHT22;5504;47.312;11.060;2022-10-16T12:11:36;28.30;53.10
10903;DHT22;5504;47.312;11.060;2022-10-16T12:16:38;28.50;54.80
10903;DHT22;5504;47.312;11.060;2022-10-16T12:19:14;28.60;52.10
10903;DHT22;5504;47.312;11.060;2022-10-16T12:21:41;28.80;53.10
10903;DHT22;5504;47.312;11.060;2022-10-16T12:24:41;29.10;52.60
10903;DHT22;5504;47.312;11.060;2022-10-16T12:29:57;29.20;53.60
10903;DHT22;5504;47.312;11.060;2022-10-16T12:32:32;29.20;52.70
10903;DHT22;5504;47.312;11.060;2022-10-16T12:34:59;29.30;52.30
10903;DHT22;5504;47.312;11.060;2022-10-16T12:37:36;29.10;53.50
10903;DHT22;5504;47.312;11.060;2022-10-16T12:40:22;26.80;53.20
10903;DHT22;5504;47.312;11.060;2022-10-16T12:42:49;25.70;54.30
10903;DHT22;5504;47.312;11.060;2022-10-16T12:45:33;25.60;57.50
10903;DHT22;5504;47.312;11.060;2022-10-16T12:48:17;25.90;55.70
10903;DHT22;5504;47.312;11.060;2022-10-16T12:50:43;26.70;58.40
10903;DHT22;5504;47.312;11.060;2022-10-16T12:53:22;27.00;54.90
10903;DHT22;5504;47.312;11.060;2022-10-16T12:58:49;26.20;54.90
10903;DHT22;5504;47.312;11.060;2022-10-16T13:01:25;26.40;57.20
10903;DHT22;5504;47.312;11.060;2022-10-16T13:06:39;26.30;58.20
10903;DHT22;5504;47.312;11.060;2022-10-16T13:15:05;26.10;57.50
10903;DHT22;5504;47.312;11.060;2022-10-16T13:28:13;26.00;56.20
10903;DHT22;5504;47.312;11.060;2022-10-16T13:30:43;26.20;56.20
10903;DHT22;5504;47.312;11.060;2022-10-16T13:33:19;25.90;54.90
10903;DHT22;5504;47.312;11.060;2022-10-16T13:35:56;25.70;55.90
10903;DHT22;5504;47.312;11.060;2022-10-16T13:38:24;25.90;56.40
10903;DHT22;5504;47.312;11.060;2022-10-16T13:45:53;26.60;56.70
10903;DHT22;5504;47.312;11.060;2022-10-16T13:48:19;26.20;55.10
10903;DHT22;5504;47.312;11.060;2022-10-16T13:50:45;26.20;57.10
10903;DHT22;5504;47.312;11.060;2022-10-16T13:53:14;26.20;57.60
10903;DHT22;5504;47.312;11.060;2022-10-16T13:55:40;25.90;55.40
10903;DHT22;5504;47.312;11.060;2022-10-16T13:58:13;25.10;55.80
10903;DHT22;5504;47.312;11.060;2022-10-16T14:00:39;24.70;56.80
10903;DHT22;5504;47.312;11.060;2022-10-16T14:03:13;24.70;58.90
10903;DHT22;5504;47.312;11.060;2022-10-16T14:06:03;24.80;59.00
10903;DHT22;5504;47.312;11.060;2022-10-16T14:08:30;25.10;58.00
10903;DHT22;5504;47.312;11.060;2022-10-16T14:10:58;25.60;59.80
10903;DHT22;5504;47.312;11.060;2022-10-16T14:16:06;25.70;55.60
10903;DHT22;5504;47.312;11.060;2022-10-16T14:18:32;25.80;57.60
10903;DHT22;5504;47.312;11.060;2022-10-16T14:21:06;26.00;58.70
10903;DHT22;5504;47.312;11.060;2022-10-16T14:23:37;26.20;58.90
10903;DHT22;5504;47.312;11.060;2022-10-16T14:28:39;26.30;57.10
10903;DHT22;5504;47.312;11.060;2022-10-16T14:31:35;26.20;57.70
10903;DHT22;5504;47.312;11.060;2022-10-16T14:34:02;26.10;57.90
10903;DHT22;5504;47.312;11.060;2022-10-16T14:36:29;26.10;61.00
10903;DHT22;5504;47.312;11.060;2022-10-16T14:39:02;26.10;61.30
10903;DHT22;5504;47.312;11.060;2022-10-16T14:41:30;26.00;60.00
10903;DHT22;5504;47.312;11.060;2022-10-16T14:44:01;25.80;60.30
10903;DHT22;5504;47.312;11.060;2022-10-16T14:46:36;25.40;59.20
10903;DHT22;5504;47.312;11.060;2022-10-16T14:51:39;25.30;60.90
10903;DHT22;5504;47.312;11.060;2022-10-16T14:54:13;25.20;61.80
10903;DHT22;5504;47.312;11.060;2022-10-16T14:59:18;25.10;62.70
10903;DHT22;5504;47.312;11.060;2022-10-16T15:01:45;25.00;64.60
10903;DHT22;5504;47.312;11.060;2022-10-16T15:04:12;24.90;64.20
10903;DHT22;5504;47.312;11.060;2022-10-16T15:06:38;24.60;66.50
10903;DHT22;5504;47.312;11.060;2022-10-16T15:09:04;24.50;67.40
10903;DHT22;5504;47.312;11.060;2022-10-16T15:11:31;24.00;66.90
10903;DHT22;5504;47.312;11.060;2022-10-16T15:13:58;23.60;68.20
10903;DHT22;5504;47.312;11.060;2022-10-16T15:16:24;23.70;69.80
10903;DHT22;5504;47.312;11.060;2022-10-16T15:18:49;23.70;70.80
10903;DHT22;5504;47.312;11.060;2022-10-16T15:21:28;23.30;69.80
10903;DHT22;5504;47.312;11.060;2022-10-16T15:23:54;23.10;70.60
10903;DHT22;5504;47.312;11.060;2022-10-16T15:26:20;22.30;72.00
10903;DHT22;5504;47.312;11.060;2022-10-16T15:28:45;22.10;73.70
10903;DHT22;5504;47.312;11.060;2022-10-16T15:31:11;21.70;74.50
10903;DHT22;5504;47.312;11.060;2022-10-16T15:33:37;21.60;75.40
10903;DHT22;5504;47.312;11.060;2022-10-16T15:36:03;21.80;75.00
10903;DHT22;5504;47.312;11.060;2022-10-16T15:38:29;21.30;76.10
10903;DHT22;5504;47.312;11.060;2022-10-16T15:40:55;21.30;76.60
10903;DHT22;5504;47.312;11.060;2022-10-16T15:43:21;21.10;77.20
10903;DHT22;5504;47.312;11.060;2022-10-16T15:48:24;20.30;78.90
10903;DHT22;5504;47.312;11.060;2022-10-16T15:50:50;20.30;79.30
10903;DHT22;5504;47.312;11.060;2022-10-16T15:53:16;20.30;79.50
10903;DHT22;5504;47.312;11.060;2022-10-16T15:55:41;19.90;79.40
10903;DHT22;5504;47.312;11.060;2022-10-16T15:58:07;19.60;81.10
10903;DHT22;5504;47.312;11.060;2022-10-16T16:00:33;19.40;81.60
10903;DHT22;5504;47.312;11.060;2022-10-16T16:02:58;19.00;83.10
10903;DHT22;5504;47.312;11.060;2022-10-16T16:05:24;18.70;84.00
10903;DHT22;5504;47.312;11.060;2022-10-16T16:07:50;18.60;85.00
10903;DHT22;5504;47.312;11.060;2022-10-16T16:10:17;18.50;85.60
10903;DHT22;5504;47.312;11.060;2022-10-16T16:12:43;18.50;86.00
10903;DHT22;5504;47.312;11.060;2022-10-16T16:15:09;18.50;85.40
10903;DHT22;5504;47.312;11.060;2022-10-16T16:17:35;18.40;85.60
10903;DHT22;5504;47.312;11.060;2022-10-16T16:20:02;18.50;85.10
10903;DHT22;5504;47.312;11.060;2022-10-16T16:22:29;18.60;85.00
10903;DHT22;5504;47.312;11.060;2022-10-16T16:24:54;18.30;85.40
10903;DHT22;5504;47.312;11.060;2022-10-16T16:27:21;18.10;86.90
10903;DHT22;5504;47.312;11.060;2022-10-16T16:29:47;18.00;87.70
10903;DHT22;5504;47.312;11.060;2022-10-16T16:32:13;17.90;88.10
10903;DHT22;5504;47.312;11.060;2022-10-16T16:34:39;17.80;88.90
10903;DHT22;5504;47.312;11.060;2022-10-16T16:37:04;17.60;89.10
10903;DHT22;5504;47.312;11.060;2022-10-16T16:39:30;17.70;89.50
10903;DHT22;5504;47.312;11.060;2022-10-16T16:41:57;17.70;89.90
10903;DHT22;5504;47.312;11.060;2022-10-16T16:44:24;17.60;89.50
10903;DHT22;5504;47.312;11.060;2022-10-16T16:46:50;17.60;89.10
10903;DHT22;5504;47.312;11.060;2022-10-16T16:49:15;17.50;89.90
10903;DHT22;5504;47.312;11.060;2022-10-16T16:51:41;17.40;90.00
10903;DHT22;5504;47.312;11.060;2022-10-16T16:54:08;17.30;90.40
10903;DHT22;5504;47.312;11.060;2022-10-16T16:56:35;17.40;90.20
10903;DHT22;5504;47.312;11.060;2022-10-16T16:59:01;17.50;89.80
10903;DHT22;5504;47.312;11.060;2022-10-16T17:01:27;17.50;90.10
10903;DHT22;5504;47.312;11.060;2022-10-16T17:03:55;17.30;90.40
10903;DHT22;5504;47.312;11.060;2022-10-16T17:06:24;17.20;90.70
10903;DHT22;5504;47.312;11.060;2022-10-16T17:08:50;17.00;90.80
10903;DHT22;5504;47.312;11.060;2022-10-16T17:11:19;17.00;91.00
10903;DHT22;5504;47.312;11.060;2022-10-16T17:13:45;17.00;91.20
10903;DHT22;5504;47.312;11.060;2022-10-16T17:16:11;16.90;91.10
10903;DHT22;5504;47.312;11.060;2022-10-16T17:18:37;17.00;91.00
10903;DHT22;5504;47.312;11.060;2022-10-16T17:21:05;16.80;90.90
10903;DHT22;5504;47.312;11.060;2022-10-16T17:23:32;16.70;91.30
10903;DHT22;5504;47.312;11.060;2022-10-16T17:26:13;16.60;91.50
10903;DHT22;5504;47.312;11.060;2022-10-16T17:28:40;16.60;91.50
10903;DHT22;5504;47.312;11.060;2022-10-16T17:31:15;16.40;91.70
10903;DHT22;5504;47.312;11.060;2022-10-16T17:33:41;16.30;91.90
10903;DHT22;5504;47.312;11.060;2022-10-16T17:36:07;16.20;92.20
10903;DHT22;5504;47.312;11.060;2022-10-16T17:38:34;16.20;92.00
10903;DHT22;5504;47.312;11.060;2022-10-16T17:41:12;16.10;92.00
10903;DHT22;5504;47.312;11.060;2022-10-16T17:43:39;16.20;92.20
10903;DHT22;5504;47.312;11.060;2022-10-16T17:46:06;16.00;92.00
10903;DHT22;5504;47.312;11.060;2022-10-16T17:48:37;16.00;92.00
10903;DHT22;5504;47.312;11.060;2022-10-16T17:51:05;16.00;91.90
10903;DHT22;5504;47.312;11.060;2022-10-16T17:53:31;16.00;92.00
10903;DHT22;5504;47.312;11.060;2022-10-16T17:56:04;16.10;92.00
10903;DHT22;5504;47.312;11.060;2022-10-16T17:58:30;16.00;92.00